Details From KSTS - San Francisco Intl
To KRDD - Redding Muni
Flight Number -
Tags decoded
Created
Modified
Stats Distance 174 nm / 322 km
Max Altitude 0 ft / 0 m
Waypoints 2
Social Downloads 0
Likes 0
Share VATSIM

Download

Looking for another format? Having issues loading an existing format? Contact us
Advertisement - Login to hide

Notes

Requested: KSFO KRDD

Route

KSFO KRDD

ID Type Via Altitude Latitude Longitude Leg Dist Tot Dist Heading (true) Name
O KSFO APT - 0 ft / 0 m 37.61867˚ -122.37501˚ - 0 nm - San Francisco Intl
O KRDD APT - 0 ft / 0 m 40.50865˚ -122.29310˚ 173 nm 173 nm 1° / 1° Redding Muni

Altitude Profile

Advertisement - Login to hide

Weather


0- 5 10 15 20 25 30 35+ Temperature / ° C

Clouds and Precipitation
Forecast for 2017-12-11 18:00 UTC. Updated an hour ago

Ground ~20,000 ft ~40,000 ft Winds

KSTS

Details ICAO KSTS (STS)
Name Charles M. Schulz - Sonoma Co
Region United States
Timezone America/Los_Angeles (UTC-8.0)
Stats Elevation 128 ft / 39 m (AMSL)
Location 38.508979° -122.812922°
Runways 2
Magnetic Variation 13.725° E

METAR

KSTS 111753Z 00000KT 10SM SCT250 03/03 A3032 RMK AO2 SLP262 T00330033 10033 21017 51013

Decode

TAF

KSTS 111736Z 1118/1218 00000KT P6SM SCT250 FM112300 VRB03KT P6SM SCT250 FM120200 00000KT P6SM SCT250 FM120700 00000KT 2SM BR SKC FM121000 00000KT 1SM BR VV002 TEMPO 1210/1214 1/4SM FG VV001 FM121400 00000KT 3SM BR SKC FM121500 00000KT P6SM SKC

Decode

Departure Runways

ID Width Length Bearing (true) Bearing (mag) Surface Threshold Offset Overrun Length
01 98 ft / 30 m 5,008 ft / 1,527 m 29.05° 15.33° Asphalt 0 ft / 0 m 0 ft / 0 m
14 151 ft / 46 m 5,122 ft / 1,561 m 157.28° 143.56° Asphalt 0 ft / 0 m 200 ft / 61 m
19 98 ft / 30 m 5,008 ft / 1,527 m 209.05° 195.33° Asphalt 0 ft / 0 m 0 ft / 0 m
32 151 ft / 46 m 5,122 ft / 1,561 m 337.28° 323.56° Asphalt 0 ft / 0 m 200 ft / 61 m

KRDD

Details ICAO KRDD (RDD)
Name Redding Muni
Region United States
Timezone America/Los_Angeles (UTC-8.0)
Stats Elevation 502 ft / 153 m (AMSL)
Location 40.508653° -122.293102°
Runways 2
Magnetic Variation 14.086° E

METAR

KRDD 111753Z 00000KT 10SM CLR 05/02 A3036 RMK AO2 SLP284 T00500017 10050 21011 53010

Decode

TAF

TAF KRDD 111720Z 1118/1218 VRB05KT P6SM SKC

Decode

Destination Runways

ID Width Length Bearing (true) Bearing (mag) Surface Threshold Offset Overrun Length
12 150 ft / 46 m 5,067 ft / 1,545 m 140.20° 126.11° Asphalt 0 ft / 0 m 0 ft / 0 m
16 150 ft / 46 m 7,015 ft / 2,138 m 180.07° 165.98° Asphalt 0 ft / 0 m 0 ft / 0 m
30 150 ft / 46 m 5,067 ft / 1,545 m 320.21° 306.12° Asphalt 498 ft / 152 m 0 ft / 0 m
34 150 ft / 46 m 7,015 ft / 2,138 m 0.07° 345.98° Asphalt 0 ft / 0 m 0 ft / 0 m

Approach Navaids

Runway Type Ident Frequency Range Bearing (true) Bearing (mag) Slope Elevation
34 Localiser IRDD 108.70 MHz 18 nm / 33 km 0.07° 345.99° - 508 ft / 155 m (AMSL)
34 Glidescope IRDD 108.70 MHz 10 nm / 19 km 0.07° 345.99° 3.00° 490 ft / 149 m (AMSL)

Popular Alternatives